Portada
METAR-TAF:

METAR-TAF

Aeropuertos :

Aeropuerto Internacional de Kosrae

Kosrae, Micronesia

latitud: 05-21N, longitud: 162-57E, altitud: 3 m

Observación

El informe se hizo hace 10 minutos, a las 23:50 UTC
Viento 6 kt del norte
Temperatura 31°C
Humedad 66%
Presión 1010 hPa
Visibilidad: 16.1 km
Nubes dispersas a una altura de 2200 ft
Nubes dispersas a una altura de 13000 ft
Cielo nuboso a una altura de 30000 ft

METAR: PTSA 212350Z 35006KT 10SM SCT022 SCT130 BKN300 31/24 A2983 RMK LAST

Hora: 11:00 (00:00 UTC)

Pronóstico

El informe se hizo hace 28 minutos, a las 23:32 UTC
Pronóstico válido del 22 a las 00 UTC al 22 a las 24 UTC
Viento 4 kt con dirección variable
Visibilidad: 10 km
Escasas nubes a una altura de 2000 ft
Cielo nuboso a una altura de 13000 ft
chaparrones en las proximidades

TAF: PTSA 212332Z 2200/2224 VRB04KT P6SM VCSH FEW020 BKN130

Observaciones y pronósticos meteorológicos de más de 4000 aeropuertos (mensajes METAR y TAF).

Los puntos amarillos y rojos representan las estaciones disponibles.

Ponga el ratón en el punto deseado para ver el nombre de la estación.

Haga clic para ver las observaciones y los pronósticos meteorológicos.

Para cambiar el mapa : haga clic en los botones verdes con una cruz de color negro para hacer un zoom, en el botón verde con un guión para alejar o en las flechas verdes para mapas adyacentes.


METAR-TAF: